createdAt,value
2023-05-17T00:01:56.506Z,30.73
2023-05-17T00:04:46.208Z,30.92
2023-05-17T00:07:36.390Z,31.03
2023-05-17T00:10:25.114Z,30.97
2023-05-17T00:13:14.144Z,30.99
2023-05-17T00:16:02.774Z,30.94
2023-05-17T00:18:51.583Z,30.86
2023-05-17T00:21:40.642Z,30.89
2023-05-17T00:24:31.978Z,30.39
2023-05-17T00:27:20.667Z,30.53
2023-05-17T00:30:11.433Z,30.57
2023-05-17T00:33:00.162Z,30.46
2023-05-17T00:35:49.121Z,30.56
2023-05-17T00:38:37.771Z,30.61
2023-05-17T00:41:28.945Z,30.69
2023-05-17T00:44:17.666Z,30.57
2023-05-17T00:47:06.627Z,30.83
2023-05-17T00:49:57.941Z,30.39
2023-05-17T00:52:47.503Z,30.77
2023-05-17T00:55:36.374Z,30.48
2023-05-17T00:58:26.788Z,30.67
2023-05-17T01:01:15.679Z,30.51
2023-05-17T01:04:04.615Z,30.38
2023-05-17T01:06:53.695Z,30.39
2023-05-17T01:09:43.203Z,30.10
2023-05-17T01:12:47.717Z,30.21
2023-05-17T01:15:44.610Z,30.51
2023-05-17T01:18:40.594Z,30.12
2023-05-17T01:21:42.483Z,30.25
2023-05-17T01:24:45.764Z,30.25
2023-05-17T01:27:40.358Z,29.92
2023-05-17T01:30:31.056Z,29.97
2023-05-17T01:33:21.073Z,29.92
2023-05-17T01:36:10.851Z,30.25
2023-05-17T01:39:00.539Z,30.14
2023-05-17T01:41:56.927Z,29.99
2023-05-17T01:44:52.182Z,30.12
2023-05-17T01:47:47.508Z,30.31
2023-05-17T01:50:37.460Z,29.94
2023-05-17T01:53:32.098Z,29.95
2023-05-17T01:56:23.470Z,30.07
2023-05-17T01:59:16.479Z,30.24
2023-05-17T02:02:09.141Z,29.82
2023-05-17T02:04:58.489Z,29.53
2023-05-17T02:07:47.445Z,29.41
2023-05-17T02:10:36.127Z,30.09
2023-05-17T02:13:24.787Z,30.11
2023-05-17T02:16:13.423Z,29.91
2023-05-17T02:19:03.505Z,29.80
2023-05-17T02:21:52.141Z,29.82
2023-05-17T02:24:40.767Z,29.55
2023-05-17T02:27:29.429Z,29.42
2023-05-17T02:30:18.503Z,29.44
2023-05-17T02:33:07.307Z,29.33
2023-05-17T02:35:57.379Z,29.80
2023-05-17T02:38:45.924Z,29.96
2023-05-17T02:41:34.546Z,29.92
2023-05-17T02:44:23.177Z,29.69
2023-05-17T02:47:12.172Z,29.73
2023-05-17T02:50:01.137Z,30.15
2023-05-17T02:52:51.179Z,29.86
2023-05-17T02:55:39.881Z,29.96
2023-05-17T02:58:28.513Z,30.03
2023-05-17T03:01:17.265Z,29.94
2023-05-17T03:04:06.266Z,30.35
2023-05-17T03:06:55.689Z,30.53
2023-05-17T03:09:45.944Z,30.36
2023-05-17T03:12:34.582Z,30.52
2023-05-17T03:15:23.402Z,30.45
2023-05-17T03:18:12.321Z,30.30
2023-05-17T03:21:01.053Z,30.30
2023-05-17T03:23:49.710Z,30.32
2023-05-17T03:26:39.769Z,30.28
2023-05-17T03:29:28.513Z,30.33
2023-05-17T03:32:17.180Z,30.07
2023-05-17T03:35:06.893Z,30.30
2023-05-17T03:37:55.535Z,30.63
2023-05-17T03:40:44.148Z,30.11
2023-05-17T03:43:34.282Z,30.23
2023-05-17T03:46:22.945Z,30.25
2023-05-17T03:49:12.665Z,30.06
2023-05-17T03:52:01.317Z,30.20
2023-05-17T03:54:49.956Z,29.85
2023-05-17T03:57:38.699Z,30.19
2023-05-17T04:00:28.763Z,29.82
2023-05-17T04:03:20.171Z,30.21
2023-05-17T04:06:09.189Z,30.30
2023-05-17T04:08:59.604Z,30.33
2023-05-17T04:11:48.284Z,29.87
2023-05-17T04:14:37.148Z,29.68
2023-05-17T04:17:27.409Z,29.66
2023-05-17T04:20:16.137Z,29.66
2023-05-17T04:23:04.824Z,29.46
2023-05-17T04:25:53.798Z,29.26
2023-05-17T04:28:42.442Z,29.32
2023-05-17T04:31:33.730Z,28.95
2023-05-17T04:34:25.136Z,29.20
2023-05-17T04:37:14.024Z,29.69
2023-05-17T04:40:02.699Z,29.24
2023-05-17T04:42:52.108Z,29.27
2023-05-17T04:45:41.150Z,29.24
2023-05-17T04:48:33.628Z,29.19
2023-05-17T04:51:23.756Z,29.03
2023-05-17T04:54:12.439Z,28.91
2023-05-17T04:57:01.078Z,29.19
2023-05-17T04:59:49.743Z,29.16
2023-05-17T05:02:39.037Z,29.00
2023-05-17T05:05:28.116Z,28.79
2023-05-17T05:08:18.380Z,28.89
2023-05-17T05:11:07.127Z,29.11
2023-05-17T05:13:55.871Z,29.32
2023-05-17T05:16:44.532Z,28.99
2023-05-17T05:19:33.269Z,29.54
2023-05-17T05:22:21.952Z,29.18
2023-05-17T05:25:12.674Z,29.21
2023-05-17T05:28:01.348Z,29.59
2023-05-17T05:30:49.980Z,29.33
2023-05-17T05:33:38.761Z,29.69
2023-05-17T05:36:27.553Z,29.90
2023-05-17T05:39:16.287Z,29.52
2023-05-17T05:42:09.608Z,29.77
2023-05-17T05:44:58.308Z,29.80
2023-05-17T05:47:47.243Z,29.79
2023-05-17T05:50:36.220Z,30.20
2023-05-17T05:53:24.921Z,29.94
2023-05-17T05:56:13.749Z,29.89
2023-05-17T05:59:03.792Z,29.80
2023-05-17T06:01:52.536Z,30.28
2023-05-17T06:04:45.579Z,30.59
2023-05-17T06:07:35.072Z,30.34
2023-05-17T06:10:24.455Z,30.78
2023-05-17T06:13:13.271Z,30.36
2023-05-17T06:16:03.632Z,31.01
2023-05-17T06:18:52.476Z,31.05
2023-05-17T06:21:41.241Z,30.77
2023-05-17T06:24:30.931Z,31.08
2023-05-17T06:27:19.666Z,30.92
2023-05-17T06:30:09.523Z,30.67
2023-05-17T06:32:59.692Z,30.94
2023-05-17T06:38:43.641Z,30.73
2023-05-17T06:41:34.957Z,31.03
2023-05-17T06:44:23.699Z,31.22
2023-05-17T06:47:12.452Z,31.16
2023-05-17T06:50:02.550Z,31.15
2023-05-17T06:52:51.343Z,31.39
2023-05-17T06:55:40.360Z,31.65
2023-05-17T06:58:29.159Z,31.63
2023-05-17T07:01:18.793Z,31.21
2023-05-17T07:04:07.540Z,31.97
2023-05-17T07:06:57.692Z,31.33
2023-05-17T07:09:46.737Z,31.89
2023-05-17T07:12:43.649Z,31.79
2023-05-17T07:15:32.445Z,31.46
2023-05-17T07:18:21.261Z,31.64
2023-05-17T07:21:10.009Z,31.36
2023-05-17T07:24:00.463Z,31.41
2023-05-17T07:26:52.085Z,31.33
2023-05-17T07:29:42.297Z,31.56
2023-05-17T07:32:31.114Z,31.78
2023-05-17T07:35:21.941Z,32.07
2023-05-17T07:38:11.624Z,31.85
2023-05-17T07:41:01.711Z,31.19
2023-05-17T07:43:50.473Z,31.54
2023-05-17T07:46:41.675Z,31.62
2023-05-17T07:49:34.749Z,31.42
2023-05-17T07:52:23.532Z,31.43
2023-05-17T07:55:12.745Z,31.29
2023-05-17T07:58:03.806Z,31.53
2023-05-17T08:00:53.718Z,31.62
2023-05-17T08:03:48.071Z,31.16
2023-05-17T08:06:38.045Z,30.84
2023-05-17T08:09:26.785Z,31.09
2023-05-17T08:12:15.409Z,30.88
2023-05-17T08:15:06.028Z,30.80
2023-05-17T08:17:54.928Z,30.88
2023-05-17T08:20:43.757Z,30.56
2023-05-17T08:23:32.584Z,31.17
2023-05-17T08:26:22.954Z,30.85
2023-05-17T08:29:12.016Z,30.79
2023-05-17T08:32:02.046Z,30.54
2023-05-17T08:34:50.931Z,30.53
2023-05-17T08:37:39.711Z,30.42
2023-05-17T08:40:30.009Z,30.31
2023-05-17T08:43:19.909Z,30.27
2023-05-17T08:46:09.525Z,29.96
2023-05-17T08:49:02.188Z,30.30
2023-05-17T08:51:52.571Z,29.88
2023-05-17T08:54:43.777Z,30.15
2023-05-17T08:57:33.680Z,30.20
2023-05-17T09:00:26.063Z,30.39
2023-05-17T09:03:19.702Z,30.38
2023-05-17T09:06:11.243Z,30.37
2023-05-17T09:09:01.567Z,30.38
2023-05-17T09:11:50.363Z,30.40
2023-05-17T09:14:39.038Z,30.68
2023-05-17T09:17:28.908Z,31.29
2023-05-17T09:20:33.972Z,30.79
2023-05-17T09:23:27.903Z,30.88
2023-05-17T09:26:18.035Z,30.80
2023-05-17T09:29:11.141Z,30.71
2023-05-17T09:32:14.357Z,31.31
2023-05-17T09:35:03.138Z,30.91
2023-05-17T09:37:51.839Z,30.87
2023-05-17T09:40:43.014Z,31.21
2023-05-17T09:43:32.279Z,30.85
2023-05-17T09:46:21.723Z,30.29
2023-05-17T09:49:10.692Z,30.04
2023-05-17T09:51:59.533Z,30.30
2023-05-17T09:54:55.442Z,29.91
2023-05-17T09:57:47.063Z,30.20
2023-05-17T10:00:35.890Z,30.37
2023-05-17T10:03:24.582Z,30.04
2023-05-17T10:06:27.772Z,30.18
2023-05-17T10:09:24.515Z,30.16
2023-05-17T10:12:16.225Z,30.29
2023-05-17T10:15:08.014Z,29.88
2023-05-17T10:17:57.353Z,30.29
2023-05-17T10:20:46.170Z,30.23
2023-05-17T10:23:36.013Z,30.53
2023-05-17T10:26:25.190Z,30.42
2023-05-17T10:29:14.008Z,30.12
2023-05-17T10:32:07.520Z,29.55
2023-05-17T10:35:09.345Z,29.25
2023-05-17T10:37:58.713Z,28.84
2023-05-17T10:40:48.565Z,28.98
2023-05-17T10:43:39.971Z,28.88
2023-05-17T10:46:32.620Z,28.99
2023-05-17T10:49:24.695Z,29.20
2023-05-17T10:52:14.384Z,29.48
2023-05-17T10:55:03.795Z,29.43
2023-05-17T10:58:10.799Z,28.88
2023-05-17T11:00:59.976Z,29.11
2023-05-17T11:03:50.226Z,28.89
2023-05-17T11:06:42.354Z,29.15
2023-05-17T11:09:34.018Z,28.91
2023-05-17T11:12:42.068Z,28.66
2023-05-17T11:15:35.316Z,28.36
2023-05-17T11:18:31.071Z,28.23
2023-05-17T11:21:22.416Z,28.39
2023-05-17T11:24:17.581Z,28.41
2023-05-17T11:27:07.814Z,28.34
2023-05-17T11:29:56.661Z,28.53
2023-05-17T11:32:49.288Z,28.46
2023-05-17T11:35:40.270Z,28.30
2023-05-17T11:38:32.546Z,28.52
2023-05-17T11:41:27.098Z,27.88
2023-05-17T11:44:17.111Z,27.96
2023-05-17T11:47:08.797Z,28.09
2023-05-17T11:50:02.057Z,27.74
2023-05-17T11:52:54.229Z,27.88
2023-05-17T11:55:44.380Z,28.08
2023-05-17T11:58:36.853Z,28.00
2023-05-17T12:01:25.564Z,28.07
2023-05-17T12:04:17.167Z,28.12
2023-05-17T12:07:06.326Z,28.15
2023-05-17T12:09:55.058Z,27.97
2023-05-17T12:12:44.297Z,28.08
2023-05-17T12:15:34.704Z,27.84
2023-05-17T12:18:23.368Z,28.21
2023-05-17T12:21:15.249Z,28.02
2023-05-17T12:24:04.030Z,28.30
2023-05-17T12:26:53.919Z,28.13
2023-05-17T12:29:42.537Z,27.95
2023-05-17T12:32:32.774Z,28.53
2023-05-17T12:35:21.597Z,28.44
2023-05-17T12:38:11.654Z,28.17
2023-05-17T12:41:02.228Z,27.80
2023-05-17T12:43:54.938Z,27.84
2023-05-17T12:46:53.574Z,28.15
2023-05-17T12:49:54.156Z,28.13
2023-05-17T12:52:43.019Z,27.90
2023-05-17T12:55:38.364Z,27.80
2023-05-17T12:58:27.170Z,27.76
2023-05-17T13:01:15.931Z,27.94
2023-05-17T13:04:07.948Z,27.92
2023-05-17T13:07:00.429Z,28.06
2023-05-17T13:09:50.098Z,27.46
2023-05-17T13:12:40.316Z,27.17
2023-05-17T13:15:33.241Z,27.90
2023-05-17T13:18:25.036Z,27.66
2023-05-17T13:21:13.889Z,27.18
2023-05-17T13:24:03.962Z,27.49
2023-05-17T13:26:52.699Z,27.33
2023-05-17T13:29:44.219Z,27.57
2023-05-17T13:32:33.142Z,27.68
2023-05-17T13:35:22.024Z,27.46
2023-05-17T13:38:10.752Z,27.24
2023-05-17T13:41:00.800Z,26.99
2023-05-17T13:43:49.514Z,26.82
2023-05-17T13:46:38.229Z,27.11
2023-05-17T13:49:28.412Z,27.56
2023-05-17T13:52:18.650Z,27.56
2023-05-17T13:55:08.687Z,27.77
2023-05-17T13:57:59.997Z,27.92
2023-05-17T14:00:50.282Z,27.26
2023-05-17T14:03:39.040Z,26.84
2023-05-17T14:06:27.874Z,27.19
2023-05-17T14:09:22.044Z,27.22
2023-05-17T14:12:11.910Z,27.48
2023-05-17T14:15:01.993Z,27.69
2023-05-17T14:17:51.131Z,27.88
2023-05-17T14:20:42.733Z,27.50
2023-05-17T14:23:34.099Z,27.64
2023-05-17T14:26:23.464Z,27.76
2023-05-17T14:29:14.885Z,27.28
2023-05-17T14:32:05.553Z,27.29
2023-05-17T14:34:54.592Z,27.64
2023-05-17T14:37:43.611Z,27.88
2023-05-17T14:40:32.752Z,27.59
2023-05-17T14:43:21.509Z,27.57
2023-05-17T14:46:10.235Z,26.89
2023-05-17T14:49:03.225Z,26.63
2023-05-17T14:51:51.963Z,26.47
2023-05-17T14:54:41.315Z,26.35
2023-05-17T14:57:32.458Z,26.78
2023-05-17T15:00:22.545Z,26.63
2023-05-17T15:03:11.943Z,26.17
2023-05-17T15:06:05.097Z,25.95
2023-05-17T15:08:56.054Z,26.27
2023-05-17T15:11:44.838Z,26.54
2023-05-17T15:14:33.544Z,26.43
2023-05-17T15:17:23.030Z,26.45
2023-05-17T15:20:14.712Z,26.17
2023-05-17T15:23:08.623Z,26.08
2023-05-17T15:25:57.247Z,26.34
2023-05-17T15:28:49.452Z,26.10
2023-05-17T15:31:38.227Z,25.66
2023-05-17T15:34:29.097Z,25.79
2023-05-17T15:37:17.918Z,26.26
2023-05-17T15:40:11.053Z,26.34
2023-05-17T15:42:59.776Z,25.96
2023-05-17T15:45:48.627Z,26.02
2023-05-17T15:48:37.678Z,25.81
2023-05-17T15:51:29.658Z,25.76
2023-05-17T15:54:18.342Z,25.96
2023-05-17T15:57:11.466Z,26.17
2023-05-17T16:00:00.244Z,25.85
2023-05-17T16:02:52.822Z,25.68
2023-05-17T16:05:41.996Z,25.79
2023-05-17T16:08:30.986Z,25.68
2023-05-17T16:11:19.555Z,25.76
2023-05-17T16:14:10.224Z,25.70
2023-05-17T16:16:59.371Z,26.39
2023-05-17T16:19:48.330Z,26.09
2023-05-17T16:22:37.275Z,25.78
2023-05-17T16:25:27.436Z,26.25
2023-05-17T16:28:19.488Z,26.21
2023-05-17T16:31:12.719Z,26.09
2023-05-17T16:34:01.610Z,25.91
2023-05-17T16:36:50.566Z,25.64
2023-05-17T16:39:41.833Z,25.73
2023-05-17T16:42:31.058Z,25.50
2023-05-17T16:45:19.764Z,25.38
2023-05-17T16:48:09.915Z,25.15
2023-05-17T16:50:59.552Z,24.82
2023-05-17T16:53:48.734Z,25.19
2023-05-17T16:56:37.563Z,25.20
2023-05-17T16:59:26.341Z,24.98
2023-05-17T17:02:15.249Z,24.72
2023-05-17T17:05:06.040Z,25.15
2023-05-17T17:07:54.702Z,25.23
2023-05-17T17:10:44.552Z,24.77
2023-05-17T17:13:33.161Z,25.09
2023-05-17T17:16:21.894Z,25.39
2023-05-17T17:19:10.794Z,25.47
2023-05-17T17:22:00.913Z,26.00
2023-05-17T17:24:49.525Z,26.38
2023-05-17T17:27:38.248Z,26.63
2023-05-17T17:30:27.030Z,26.81
2023-05-17T17:33:15.971Z,26.96
2023-05-17T17:36:05.027Z,27.25
2023-05-17T17:38:56.469Z,27.58
2023-05-17T17:41:45.188Z,28.19
2023-05-17T17:44:38.451Z,28.46
2023-05-17T17:47:27.290Z,28.03
2023-05-17T17:50:17.241Z,28.08
2023-05-17T17:53:06.045Z,28.15
2023-05-17T17:55:56.144Z,27.87
2023-05-17T17:58:45.194Z,27.73
2023-05-17T18:01:35.196Z,27.41
2023-05-17T18:04:23.923Z,27.19
2023-05-17T18:07:15.457Z,27.12
2023-05-17T18:10:04.216Z,27.02
2023-05-17T18:12:55.257Z,26.85
2023-05-17T18:15:45.046Z,27.36
2023-05-17T18:18:33.823Z,27.47
2023-05-17T18:21:22.681Z,28.25
2023-05-17T18:24:12.516Z,28.42
2023-05-17T18:27:01.322Z,28.57
2023-05-17T18:29:51.529Z,28.46
2023-05-17T18:32:40.323Z,28.42
2023-05-17T18:35:30.260Z,28.35
2023-05-17T18:38:19.079Z,28.22
2023-05-17T18:41:07.925Z,28.49
2023-05-17T18:44:02.095Z,28.36
2023-05-17T18:46:54.325Z,28.28
2023-05-17T18:49:46.809Z,28.69
2023-05-17T18:52:35.560Z,28.55
2023-05-17T18:55:24.497Z,28.39
2023-05-17T18:58:13.550Z,28.52
2023-05-17T19:01:02.897Z,28.43
2023-05-17T19:03:55.268Z,28.35
2023-05-17T19:06:43.975Z,28.60
2023-05-17T19:09:34.438Z,28.60
2023-05-17T19:12:23.207Z,29.05
2023-05-17T19:15:12.284Z,28.83
2023-05-17T19:18:01.002Z,28.80
2023-05-17T19:20:51.233Z,28.77
2023-05-17T19:23:39.893Z,28.90
2023-05-17T19:26:29.097Z,29.10
2023-05-17T19:29:18.105Z,29.17
2023-05-17T19:32:08.349Z,29.38
2023-05-17T19:34:57.299Z,29.39
2023-05-17T19:37:47.664Z,29.42
2023-05-17T19:40:36.950Z,29.71
2023-05-17T19:43:25.673Z,29.48
2023-05-17T19:46:14.425Z,29.73
2023-05-17T19:49:04.575Z,30.03
2023-05-17T19:51:54.138Z,30.32
2023-05-17T19:54:44.267Z,29.94
2023-05-17T19:57:33.038Z,30.07
2023-05-17T20:00:21.874Z,30.30
2023-05-17T20:03:10.845Z,30.37
2023-05-17T20:05:59.605Z,30.40
2023-05-17T20:08:48.234Z,30.35
2023-05-17T20:11:38.317Z,30.13
2023-05-17T20:14:28.576Z,30.47
2023-05-17T20:17:17.488Z,30.58
2023-05-17T20:20:07.491Z,30.52
2023-05-17T20:22:56.305Z,30.52
2023-05-17T20:25:47.554Z,30.36
2023-05-17T20:28:37.699Z,30.62
2023-05-17T20:31:26.462Z,30.47
2023-05-17T20:34:15.439Z,30.70
2023-05-17T20:37:04.198Z,30.60
2023-05-17T20:39:53.623Z,30.61
2023-05-17T20:42:42.833Z,30.81
2023-05-17T20:45:33.782Z,30.59
2023-05-17T20:48:22.661Z,30.97
2023-05-17T20:51:12.047Z,31.06
2023-05-17T20:54:00.955Z,30.93
2023-05-17T20:56:49.802Z,30.68
2023-05-17T20:59:39.298Z,31.14
2023-05-17T21:02:29.520Z,30.77
2023-05-17T21:05:18.308Z,31.27
2023-05-17T21:08:08.350Z,31.19
2023-05-17T21:10:57.564Z,31.05
2023-05-17T21:13:46.324Z,31.23
2023-05-17T21:16:35.641Z,31.16
2023-05-17T21:19:25.907Z,30.96
2023-05-17T21:22:14.702Z,31.23
2023-05-17T21:25:03.462Z,30.88
2023-05-17T21:27:52.261Z,31.20
2023-05-17T21:30:41.023Z,30.98
2023-05-17T21:33:30.030Z,31.11
2023-05-17T21:36:20.105Z,30.94
2023-05-17T21:39:08.763Z,30.87
2023-05-17T21:41:57.393Z,30.66
2023-05-17T21:44:46.059Z,31.01
2023-05-17T21:47:35.919Z,31.20
2023-05-17T21:50:24.738Z,31.26
2023-05-17T21:53:15.102Z,30.63
2023-05-17T21:56:03.806Z,29.72
2023-05-17T21:58:53.250Z,28.35
2023-05-17T22:01:43.468Z,27.71
2023-05-17T22:04:32.405Z,28.84
2023-05-17T22:07:21.087Z,30.36
2023-05-17T22:10:12.699Z,30.83
2023-05-17T22:13:02.740Z,31.04
2023-05-17T22:15:51.490Z,31.08
2023-05-17T22:18:40.305Z,31.04
2023-05-17T22:21:29.237Z,31.22
2023-05-17T22:24:18.447Z,31.43
2023-05-17T22:27:08.613Z,31.55
2023-05-17T22:29:57.242Z,31.68
2023-05-17T22:32:45.937Z,31.55
2023-05-17T22:35:34.650Z,31.81
2023-05-17T22:38:24.288Z,31.61
2023-05-17T22:41:13.805Z,31.46
2023-05-17T22:44:04.004Z,31.73
2023-05-17T22:46:52.766Z,31.94
2023-05-17T22:49:41.960Z,31.74
2023-05-17T22:52:30.628Z,32.05
2023-05-17T22:55:19.869Z,31.47
2023-05-17T22:58:08.518Z,31.88
2023-05-17T23:00:58.705Z,31.44
2023-05-17T23:03:47.454Z,31.77
2023-05-17T23:06:36.338Z,31.63
2023-05-17T23:09:26.141Z,31.89
2023-05-17T23:12:17.358Z,31.78
2023-05-17T23:15:09.468Z,31.69
2023-05-17T23:17:59.923Z,31.94
2023-05-17T23:20:49.877Z,31.51
2023-05-17T23:23:40.642Z,31.85
2023-05-17T23:26:29.455Z,31.73
2023-05-17T23:29:18.906Z,31.72
2023-05-17T23:32:07.882Z,31.92
2023-05-17T23:35:03.450Z,31.79
2023-05-17T23:37:52.171Z,31.68
2023-05-17T23:40:41.779Z,31.72
2023-05-17T23:43:30.417Z,31.90
2023-05-17T23:46:19.720Z,31.65
2023-05-17T23:49:08.627Z,31.83
2023-05-17T23:51:58.681Z,31.86
2023-05-17T23:54:48.803Z,32.08
2023-05-17T23:57:37.846Z,31.83
